createdAt,value
2023-10-31T00:06:55.665Z,13.62
2023-10-31T00:26:55.637Z,13.50
2023-10-31T00:46:55.744Z,13.50
2023-10-31T01:06:55.634Z,13.50
2023-10-31T01:26:55.618Z,13.50
2023-10-31T01:46:55.574Z,13.62
2023-10-31T02:06:55.637Z,13.50
2023-10-31T02:26:55.620Z,13.50
2023-10-31T02:46:55.541Z,13.50
2023-10-31T03:06:55.503Z,13.31
2023-10-31T03:26:55.543Z,13.56
2023-10-31T03:46:55.573Z,13.43
2023-10-31T04:06:55.511Z,13.50
2023-10-31T04:26:55.465Z,13.37
2023-10-31T04:46:55.543Z,13.43
2023-10-31T05:06:55.475Z,13.37
2023-10-31T05:26:55.491Z,13.50
2023-10-31T05:46:55.364Z,13.43
2023-10-31T06:06:55.487Z,13.37
2023-10-31T06:26:55.385Z,13.50
2023-10-31T06:46:55.369Z,13.37
2023-10-31T07:06:55.399Z,13.43
2023-10-31T07:26:55.355Z,13.37
2023-10-31T07:46:55.323Z,13.43
2023-10-31T08:06:55.347Z,13.31
2023-10-31T08:26:55.228Z,13.37
2023-10-31T08:46:55.284Z,13.18
2023-10-31T09:06:55.243Z,13.25
2023-10-31T09:26:55.227Z,13.25
2023-10-31T09:46:55.160Z,13.43
2023-10-31T10:06:55.243Z,13.31
2023-10-31T10:26:55.162Z,13.43
2023-10-31T10:46:55.326Z,13.43
2023-10-31T11:06:55.395Z,13.43
2023-10-31T11:26:55.552Z,13.31
2023-10-31T11:46:55.149Z,13.37
2023-10-31T12:06:55.350Z,13.50
2023-10-31T12:26:55.315Z,13.37
2023-10-31T12:46:55.012Z,13.37
2023-10-31T13:06:55.211Z,13.37
2023-10-31T13:26:55.271Z,13.37
2023-10-31T13:46:55.326Z,13.37
2023-10-31T14:26:55.312Z,13.31
2023-10-31T14:46:54.925Z,13.37
2023-10-31T15:06:55.035Z,13.37
2023-10-31T15:26:54.890Z,13.31
2023-10-31T15:46:55.158Z,13.31
2023-10-31T16:06:54.841Z,13.31
2023-10-31T16:26:54.907Z,13.25
2023-10-31T16:46:54.802Z,13.50
2023-10-31T17:06:55.068Z,13.31
2023-10-31T17:26:54.773Z,13.43
2023-10-31T17:46:54.992Z,13.31
2023-10-31T18:06:54.886Z,13.43
2023-10-31T18:26:55.017Z,13.18
2023-10-31T18:46:54.918Z,13.25
2023-10-31T19:06:54.869Z,13.25
2023-10-31T19:26:54.874Z,13.25
2023-10-31T19:46:54.841Z,13.25
2023-10-31T20:06:54.838Z,13.25
2023-10-31T20:26:54.936Z,13.25
2023-10-31T20:46:54.577Z,13.18
2023-10-31T21:06:54.833Z,13.18
2023-10-31T21:26:54.840Z,13.37
2023-10-31T21:46:54.657Z,13.18
2023-10-31T22:06:54.721Z,13.18
2023-10-31T22:26:54.574Z,13.18
2023-10-31T22:46:54.481Z,13.18
2023-10-31T23:06:54.560Z,13.18
2023-10-31T23:26:54.753Z,13.18
2023-10-31T23:46:54.653Z,13.12
